sensor_id;sensor_type;location;lat;lon;timestamp;pressure;altitude;pressure_sealevel;temperature;humidity
63006;BME280;53704;52.532;6.426;2022-11-20T00:01:24;101413.38;;;-5.29;100.00
63006;BME280;53704;52.532;6.426;2022-11-20T00:03:51;101419.59;;;-5.31;100.00
63006;BME280;53704;52.532;6.426;2022-11-20T00:06:18;101418.00;;;-5.37;100.00
63006;BME280;53704;52.532;6.426;2022-11-20T00:08:45;101409.09;;;-5.31;100.00
63006;BME280;53704;52.532;6.426;2022-11-20T00:11:17;101409.25;;;-5.36;100.00
63006;BME280;53704;52.532;6.426;2022-11-20T00:13:48;101419.50;;;-5.28;100.00
63006;BME280;53704;52.532;6.426;2022-11-20T00:16:16;101414.13;;;-5.25;100.00
63006;BME280;53704;52.532;6.426;2022-11-20T00:18:42;101418.75;;;-5.33;100.00
63006;BME280;53704;52.532;6.426;2022-11-20T00:21:20;101403.97;;;-5.64;100.00
63006;BME280;53704;52.532;6.426;2022-11-20T00:23:46;101404.91;;;-5.67;100.00
63006;BME280;53704;52.532;6.426;2022-11-20T00:26:14;101403.66;;;-5.53;100.00
63006;BME280;53704;52.532;6.426;2022-11-20T00:28:41;101408.03;;;-5.54;100.00
63006;BME280;53704;52.532;6.426;2022-11-20T00:31:10;101412.28;;;-5.50;100.00
63006;BME280;53704;52.532;6.426;2022-11-20T00:33:36;101406.47;;;-5.59;100.00
63006;BME280;53704;52.532;6.426;2022-11-20T00:36:03;101408.34;;;-5.36;100.00
63006;BME280;53704;52.532;6.426;2022-11-20T00:38:30;101399.78;;;-5.41;100.00
63006;BME280;53704;52.532;6.426;2022-11-20T00:40:57;101409.66;;;-5.50;100.00
63006;BME280;53704;52.532;6.426;2022-11-20T00:43:22;101407.78;;;-5.46;100.00
63006;BME280;53704;52.532;6.426;2022-11-20T00:45:48;101402.72;;;-5.24;100.00
63006;BME280;53704;52.532;6.426;2022-11-20T00:48:13;101398.97;;;-5.43;100.00
63006;BME280;53704;52.532;6.426;2022-11-20T00:50:39;101390.63;;;-5.56;100.00
63006;BME280;53704;52.532;6.426;2022-11-20T00:53:04;101395.22;;;-5.65;100.00
63006;BME280;53704;52.532;6.426;2022-11-20T00:55:29;101388.81;;;-5.54;100.00
63006;BME280;53704;52.532;6.426;2022-11-20T00:57:55;101383.44;;;-5.79;100.00
63006;BME280;53704;52.532;6.426;2022-11-20T01:00:20;101382.44;;;-5.75;100.00
63006;BME280;53704;52.532;6.426;2022-11-20T01:02:45;101374.69;;;-5.78;100.00
63006;BME280;53704;52.532;6.426;2022-11-20T01:05:11;101377.19;;;-5.47;100.00
63006;BME280;53704;52.532;6.426;2022-11-20T01:07:36;101380.03;;;-5.53;100.00
63006;BME280;53704;52.532;6.426;2022-11-20T01:10:01;101372.31;;;-5.58;100.00
63006;BME280;53704;52.532;6.426;2022-11-20T01:12:27;101374.00;;;-5.57;100.00
63006;BME280;53704;52.532;6.426;2022-11-20T01:14:52;101371.13;;;-5.77;100.00
63006;BME280;53704;52.532;6.426;2022-11-20T01:17:18;101375.13;;;-5.64;100.00
63006;BME280;53704;52.532;6.426;2022-11-20T01:19:43;101384.44;;;-5.55;100.00
63006;BME280;53704;52.532;6.426;2022-11-20T01:22:09;101368.84;;;-5.60;100.00
63006;BME280;53704;52.532;6.426;2022-11-20T01:24:34;101361.91;;;-5.61;100.00
63006;BME280;53704;52.532;6.426;2022-11-20T01:26:59;101352.16;;;-5.57;100.00
63006;BME280;53704;52.532;6.426;2022-11-20T01:29:25;101345.94;;;-5.53;100.00
63006;BME280;53704;52.532;6.426;2022-11-20T01:31:51;101347.25;;;-5.40;100.00
63006;BME280;53704;52.532;6.426;2022-11-20T01:34:20;101344.25;;;-5.56;100.00
63006;BME280;53704;52.532;6.426;2022-11-20T01:36:46;101357.03;;;-5.73;100.00
63006;BME280;53704;52.532;6.426;2022-11-20T01:39:14;101347.84;;;-5.88;100.00
63006;BME280;53704;52.532;6.426;2022-11-20T01:41:40;101359.34;;;-5.63;100.00
63006;BME280;53704;52.532;6.426;2022-11-20T01:44:50;101355.22;;;-5.71;100.00
63006;BME280;53704;52.532;6.426;2022-11-20T01:47:40;101354.75;;;-5.86;100.00
63006;BME280;53704;52.532;6.426;2022-11-20T01:52:41;101363.50;;;-6.13;100.00
63006;BME280;53704;52.532;6.426;2022-11-20T01:55:14;101357.63;;;-5.93;100.00
63006;BME280;53704;52.532;6.426;2022-11-20T01:57:43;101356.72;;;-5.63;100.00
63006;BME280;53704;52.532;6.426;2022-11-20T02:00:12;101348.72;;;-5.88;100.00
63006;BME280;53704;52.532;6.426;2022-11-20T02:02:40;101350.47;;;-5.88;100.00
63006;BME280;53704;52.532;6.426;2022-11-20T02:05:23;101355.53;;;-5.82;100.00
63006;BME280;53704;52.532;6.426;2022-11-20T02:07:49;101349.47;;;-5.84;100.00
63006;BME280;53704;52.532;6.426;2022-11-20T02:10:16;101357.03;;;-5.73;100.00
63006;BME280;53704;52.532;6.426;2022-11-20T02:12:41;101349.06;;;-5.70;100.00
63006;BME280;53704;52.532;6.426;2022-11-20T02:15:26;101352.44;;;-5.67;100.00
63006;BME280;53704;52.532;6.426;2022-11-20T02:17:51;101344.09;;;-5.79;100.00
63006;BME280;53704;52.532;6.426;2022-11-20T02:20:17;101341.69;;;-5.57;100.00
63006;BME280;53704;52.532;6.426;2022-11-20T02:22:54;101344.66;;;-5.70;100.00
63006;BME280;53704;52.532;6.426;2022-11-20T02:25:24;101335.38;;;-5.80;100.00
63006;BME280;53704;52.532;6.426;2022-11-20T02:27:51;101340.13;;;-5.93;100.00
63006;BME280;53704;52.532;6.426;2022-11-20T02:30:17;101333.66;;;-5.81;100.00
63006;BME280;53704;52.532;6.426;2022-11-20T02:32:43;101330.91;;;-5.76;100.00
63006;BME280;53704;52.532;6.426;2022-11-20T02:37:43;101322.69;;;-5.94;100.00
63006;BME280;53704;52.532;6.426;2022-11-20T02:40:10;101319.56;;;-6.05;100.00
63006;BME280;53704;52.532;6.426;2022-11-20T02:42:36;101318.69;;;-6.06;100.00
63006;BME280;53704;52.532;6.426;2022-11-20T02:45:02;101323.19;;;-6.11;100.00
63006;BME280;53704;52.532;6.426;2022-11-20T02:47:28;101322.72;;;-6.24;100.00
63006;BME280;53704;52.532;6.426;2022-11-20T02:49:53;101316.75;;;-6.29;100.00
63006;BME280;53704;52.532;6.426;2022-11-20T02:52:18;101323.88;;;-6.04;100.00
63006;BME280;53704;52.532;6.426;2022-11-20T02:54:44;101308.50;;;-5.88;100.00
63006;BME280;53704;52.532;6.426;2022-11-20T02:57:09;101306.22;;;-6.27;100.00
63006;BME280;53704;52.532;6.426;2022-11-20T02:59:34;101311.84;;;-6.41;100.00
63006;BME280;53704;52.532;6.426;2022-11-20T03:02:00;101314.88;;;-6.25;100.00
63006;BME280;53704;52.532;6.426;2022-11-20T03:04:25;101314.22;;;-6.02;100.00
63006;BME280;53704;52.532;6.426;2022-11-20T03:06:51;101312.47;;;-6.33;100.00
63006;BME280;53704;52.532;6.426;2022-11-20T03:09:16;101322.25;;;-6.38;100.00
63006;BME280;53704;52.532;6.426;2022-11-20T03:11:41;101323.03;;;-6.05;100.00
63006;BME280;53704;52.532;6.426;2022-11-20T03:14:07;101320.88;;;-5.92;100.00
63006;BME280;53704;52.532;6.426;2022-11-20T03:16:32;101322.06;;;-6.32;100.00
63006;BME280;53704;52.532;6.426;2022-11-20T03:18:58;101318.72;;;-6.37;100.00
63006;BME280;53704;52.532;6.426;2022-11-20T03:21:23;101312.50;;;-6.03;100.00
63006;BME280;53704;52.532;6.426;2022-11-20T03:23:49;101318.09;;;-6.15;100.00
63006;BME280;53704;52.532;6.426;2022-11-20T03:26:20;101307.22;;;-6.02;100.00
63006;BME280;53704;52.532;6.426;2022-11-20T03:28:51;101303.91;;;-6.08;100.00
63006;BME280;53704;52.532;6.426;2022-11-20T03:31:19;101295.69;;;-6.26;100.00
63006;BME280;53704;52.532;6.426;2022-11-20T03:33:45;101304.31;;;-6.53;100.00
63006;BME280;53704;52.532;6.426;2022-11-20T03:36:12;101310.66;;;-6.61;100.00
63006;BME280;53704;52.532;6.426;2022-11-20T03:38:38;101306.59;;;-6.41;100.00
63006;BME280;53704;52.532;6.426;2022-11-20T03:41:06;101301.47;;;-6.14;100.00
63006;BME280;53704;52.532;6.426;2022-11-20T03:43:33;101292.84;;;-6.18;100.00
63006;BME280;53704;52.532;6.426;2022-11-20T03:45:59;101300.59;;;-6.45;100.00
63006;BME280;53704;52.532;6.426;2022-11-20T03:48:24;101291.56;;;-6.34;100.00
63006;BME280;53704;52.532;6.426;2022-11-20T03:50:50;101290.09;;;-6.13;100.00
63006;BME280;53704;52.532;6.426;2022-11-20T03:53:16;101287.31;;;-6.09;100.00
63006;BME280;53704;52.532;6.426;2022-11-20T03:55:41;101283.56;;;-6.30;100.00
63006;BME280;53704;52.532;6.426;2022-11-20T03:58:08;101279.22;;;-6.61;100.00
63006;BME280;53704;52.532;6.426;2022-11-20T04:00:34;101273.19;;;-6.64;100.00
63006;BME280;53704;52.532;6.426;2022-11-20T04:03:00;101270.25;;;-6.22;100.00
63006;BME280;53704;52.532;6.426;2022-11-20T04:05:26;101267.31;;;-6.41;100.00
63006;BME280;53704;52.532;6.426;2022-11-20T04:07:52;101271.53;;;-6.35;100.00
63006;BME280;53704;52.532;6.426;2022-11-20T04:10:17;101264.56;;;-6.37;100.00
63006;BME280;53704;52.532;6.426;2022-11-20T04:12:43;101256.19;;;-6.49;100.00
63006;BME280;53704;52.532;6.426;2022-11-20T04:15:09;101257.06;;;-6.49;100.00
63006;BME280;53704;52.532;6.426;2022-11-20T04:17:35;101251.22;;;-6.59;100.00
63006;BME280;53704;52.532;6.426;2022-11-20T04:20:00;101252.56;;;-6.45;100.00
63006;BME280;53704;52.532;6.426;2022-11-20T04:22:26;101249.47;;;-6.28;100.00
63006;BME280;53704;52.532;6.426;2022-11-20T04:24:51;101251.13;;;-6.56;100.00
63006;BME280;53704;52.532;6.426;2022-11-20T04:27:17;101254.34;;;-6.46;100.00
63006;BME280;53704;52.532;6.426;2022-11-20T04:29:42;101250.97;;;-6.49;100.00
63006;BME280;53704;52.532;6.426;2022-11-20T04:32:07;101247.50;;;-6.51;100.00
63006;BME280;53704;52.532;6.426;2022-11-20T04:34:33;101245.81;;;-6.52;100.00
63006;BME280;53704;52.532;6.426;2022-11-20T04:36:58;101243.66;;;-6.69;100.00
63006;BME280;53704;52.532;6.426;2022-11-20T04:39:24;101249.75;;;-6.69;100.00
63006;BME280;53704;52.532;6.426;2022-11-20T04:41:49;101249.69;;;-6.97;100.00
63006;BME280;53704;52.532;6.426;2022-11-20T04:44:34;101250.22;;;-6.84;100.00
63006;BME280;53704;52.532;6.426;2022-11-20T04:47:00;101254.75;;;-6.60;100.00
63006;BME280;53704;52.532;6.426;2022-11-20T04:49:25;101239.88;;;-6.29;100.00
63006;BME280;53704;52.532;6.426;2022-11-20T04:51:53;101236.53;;;-6.64;100.00
63006;BME280;53704;52.532;6.426;2022-11-20T04:54:19;101234.50;;;-6.84;100.00
63006;BME280;53704;52.532;6.426;2022-11-20T04:56:47;101238.13;;;-6.59;100.00
63006;BME280;53704;52.532;6.426;2022-11-20T04:59:13;101229.44;;;-6.59;100.00
63006;BME280;53704;52.532;6.426;2022-11-20T05:01:38;101220.06;;;-6.68;100.00
63006;BME280;53704;52.532;6.426;2022-11-20T05:04:04;101227.09;;;-6.70;100.00
63006;BME280;53704;52.532;6.426;2022-11-20T05:06:30;101222.75;;;-6.71;100.00
63006;BME280;53704;52.532;6.426;2022-11-20T05:08:56;101222.53;;;-6.63;100.00
63006;BME280;53704;52.532;6.426;2022-11-20T05:11:21;101219.50;;;-6.79;100.00
63006;BME280;53704;52.532;6.426;2022-11-20T05:13:48;101225.56;;;-6.77;100.00
63006;BME280;53704;52.532;6.426;2022-11-20T05:16:19;101225.56;;;-6.77;100.00
63006;BME280;53704;52.532;6.426;2022-11-20T05:18:45;101220.41;;;-6.80;100.00
63006;BME280;53704;52.532;6.426;2022-11-20T05:21:11;101215.88;;;-7.05;100.00
63006;BME280;53704;52.532;6.426;2022-11-20T05:23:37;101221.41;;;-6.84;100.00
63006;BME280;53704;52.532;6.426;2022-11-20T05:26:03;101217.03;;;-6.84;100.00
63006;BME280;53704;52.532;6.426;2022-11-20T05:28:30;101219.28;;;-6.71;100.00
63006;BME280;53704;52.532;6.426;2022-11-20T05:31:03;101213.19;;;-6.72;100.00
63006;BME280;53704;52.532;6.426;2022-11-20T05:33:28;101212.28;;;-6.71;100.00
63006;BME280;53704;52.532;6.426;2022-11-20T05:35:58;101214.19;;;-6.46;100.00
63006;BME280;53704;52.532;6.426;2022-11-20T05:38:23;101206.84;;;-6.63;100.00
63006;BME280;53704;52.532;6.426;2022-11-20T05:40:48;101208.44;;;-6.89;100.00
63006;BME280;53704;52.532;6.426;2022-11-20T05:43:14;101215.06;;;-6.77;100.00
63006;BME280;53704;52.532;6.426;2022-11-20T05:45:39;101215.66;;;-6.67;100.00
63006;BME280;53704;52.532;6.426;2022-11-20T05:48:04;101220.00;;;-6.66;100.00
63006;BME280;53704;52.532;6.426;2022-11-20T05:50:30;101222.50;;;-6.93;100.00
63006;BME280;53704;52.532;6.426;2022-11-20T05:52:58;101235.78;;;-7.34;100.00
63006;BME280;53704;52.532;6.426;2022-11-20T05:55:23;101231.81;;;-7.49;100.00
63006;BME280;53704;52.532;6.426;2022-11-20T05:57:49;101237.09;;;-7.50;100.00
63006;BME280;53704;52.532;6.426;2022-11-20T06:00:14;101236.97;;;-7.11;100.00
63006;BME280;53704;52.532;6.426;2022-11-20T06:02:40;101236.09;;;-7.12;100.00
63006;BME280;53704;52.532;6.426;2022-11-20T06:05:05;101233.84;;;-7.25;100.00
63006;BME280;53704;52.532;6.426;2022-11-20T06:07:31;101240.97;;;-7.32;100.00
63006;BME280;53704;52.532;6.426;2022-11-20T06:09:56;101233.19;;;-7.01;100.00
63006;BME280;53704;52.532;6.426;2022-11-20T06:12:22;101229.97;;;-6.79;100.00
63006;BME280;53704;52.532;6.426;2022-11-20T06:14:47;101227.00;;;-6.98;100.00
63006;BME280;53704;52.532;6.426;2022-11-20T06:17:13;101235.50;;;-7.23;100.00
63006;BME280;53704;52.532;6.426;2022-11-20T06:19:38;101222.91;;;-7.09;100.00
63006;BME280;53704;52.532;6.426;2022-11-20T06:22:03;101235.47;;;-6.88;100.00
63006;BME280;53704;52.532;6.426;2022-11-20T06:24:29;101233.13;;;-6.99;100.00
63006;BME280;53704;52.532;6.426;2022-11-20T06:26:54;101244.47;;;-7.32;100.00
63006;BME280;53704;52.532;6.426;2022-11-20T06:29:19;101241.03;;;-7.01;100.00
63006;BME280;53704;52.532;6.426;2022-11-20T06:31:45;101240.31;;;-6.75;100.00
63006;BME280;53704;52.532;6.426;2022-11-20T06:34:10;101234.50;;;-6.53;100.00
63006;BME280;53704;52.532;6.426;2022-11-20T06:36:36;101226.56;;;-6.51;100.00
63006;BME280;53704;52.532;6.426;2022-11-20T06:39:01;101230.66;;;-7.04;100.00
63006;BME280;53704;52.532;6.426;2022-11-20T06:41:27;101233.25;;;-7.04;100.00
63006;BME280;53704;52.532;6.426;2022-11-20T06:43:53;101229.69;;;-6.68;100.00
63006;BME280;53704;52.532;6.426;2022-11-20T06:46:19;101232.72;;;-6.52;100.00
63006;BME280;53704;52.532;6.426;2022-11-20T06:48:45;101224.16;;;-6.58;100.00
63006;BME280;53704;52.532;6.426;2022-11-20T06:51:11;101231.13;;;-6.58;100.00
63006;BME280;53704;52.532;6.426;2022-11-20T06:53:37;101236.88;;;-6.75;100.00
63006;BME280;53704;52.532;6.426;2022-11-20T06:56:03;101243.28;;;-6.87;100.00
63006;BME280;53704;52.532;6.426;2022-11-20T06:58:30;101239.53;;;-7.10;100.00
63006;BME280;53704;52.532;6.426;2022-11-20T07:01:00;101228.34;;;-6.83;100.00
63006;BME280;53704;52.532;6.426;2022-11-20T07:03:26;101221.69;;;-6.64;100.00
63006;BME280;53704;52.532;6.426;2022-11-20T07:05:54;101221.63;;;-6.61;100.00
63006;BME280;53704;52.532;6.426;2022-11-20T07:08:20;101207.81;;;-6.38;100.00
63006;BME280;53704;52.532;6.426;2022-11-20T07:10:45;101226.75;;;-6.58;100.00
63006;BME280;53704;52.532;6.426;2022-11-20T07:13:10;101226.19;;;-6.69;100.00
63006;BME280;53704;52.532;6.426;2022-11-20T07:15:36;101227.31;;;-6.78;100.00
63006;BME280;53704;52.532;6.426;2022-11-20T07:18:01;101223.97;;;-6.83;100.00
63006;BME280;53704;52.532;6.426;2022-11-20T07:20:27;101223.94;;;-6.81;100.00
63006;BME280;53704;52.532;6.426;2022-11-20T07:22:54;101225.78;;;-6.55;100.00
63006;BME280;53704;52.532;6.426;2022-11-20T07:25:20;101220.47;;;-6.83;100.00
63006;BME280;53704;52.532;6.426;2022-11-20T07:27:45;101226.72;;;-6.87;100.00
63006;BME280;53704;52.532;6.426;2022-11-20T07:30:11;101225.56;;;-6.77;100.00
63006;BME280;53704;52.532;6.426;2022-11-20T07:32:37;101215.75;;;-6.70;100.00
63006;BME280;53704;52.532;6.426;2022-11-20T07:35:02;101219.84;;;-6.60;100.00
63006;BME280;53704;52.532;6.426;2022-11-20T07:37:28;101215.06;;;-6.77;100.00
63006;BME280;53704;52.532;6.426;2022-11-20T07:39:53;101217.47;;;-6.69;100.00
63006;BME280;53704;52.532;6.426;2022-11-20T07:42:18;101206.41;;;-6.79;100.00
63006;BME280;53704;52.532;6.426;2022-11-20T07:44:44;101205.28;;;-6.70;100.00
63006;BME280;53704;52.532;6.426;2022-11-20T07:47:09;101201.78;;;-6.69;100.00
63006;BME280;53704;52.532;6.426;2022-11-20T07:49:34;101196.22;;;-6.59;100.00
63006;BME280;53704;52.532;6.426;2022-11-20T07:52:00;101184.72;;;-6.53;100.00
63006;BME280;53704;52.532;6.426;2022-11-20T07:54:25;101188.06;;;-6.48;100.00
63006;BME280;53704;52.532;6.426;2022-11-20T07:56:51;101180.09;;;-6.45;100.00
63006;BME280;53704;52.532;6.426;2022-11-20T07:59:16;101181.72;;;-6.41;100.00
63006;BME280;53704;52.532;6.426;2022-11-20T08:01:42;101178.19;;;-6.40;100.00
63006;BME280;53704;52.532;6.426;2022-11-20T08:04:08;101182.59;;;-6.40;100.00
63006;BME280;53704;52.532;6.426;2022-11-20T08:06:34;101180.69;;;-6.35;100.00
63006;BME280;53704;52.532;6.426;2022-11-20T08:09:00;101177.81;;;-6.27;100.00
63006;BME280;53704;52.532;6.426;2022-11-20T08:11:25;101185.25;;;-6.13;100.00
63006;BME280;53704;52.532;6.426;2022-11-20T08:14:09;101185.41;;;-6.18;100.00
63006;BME280;53704;52.532;6.426;2022-11-20T08:16:46;101183.59;;;-6.16;100.00
63006;BME280;53704;52.532;6.426;2022-11-20T08:19:13;101181.72;;;-6.12;100.00
63006;BME280;53704;52.532;6.426;2022-11-20T08:21:39;101184.06;;;-6.03;100.00
63006;BME280;53704;52.532;6.426;2022-11-20T08:24:05;101187.47;;;-6.01;100.00
63006;BME280;53704;52.532;6.426;2022-11-20T08:26:31;101183.56;;;-5.89;100.00
63006;BME280;53704;52.532;6.426;2022-11-20T08:28:57;101184.31;;;-5.86;100.00
63006;BME280;53704;52.532;6.426;2022-11-20T08:31:27;101186.91;;;-5.84;100.00
63006;BME280;53704;52.532;6.426;2022-11-20T08:33:53;101174.69;;;-5.85;100.00
63006;BME280;53704;52.532;6.426;2022-11-20T08:36:19;101190.91;;;-5.72;100.00
63006;BME280;53704;52.532;6.426;2022-11-20T08:38:50;101188.88;;;-5.64;100.00
63006;BME280;53704;52.532;6.426;2022-11-20T08:41:16;101187.91;;;-5.61;100.00
63006;BME280;53704;52.532;6.426;2022-11-20T08:43:59;101196.84;;;-5.67;100.00
63006;BME280;53704;52.532;6.426;2022-11-20T08:46:27;101181.44;;;-5.51;100.00
63006;BME280;53704;52.532;6.426;2022-11-20T08:48:53;101174.41;;;-5.51;100.00
63006;BME280;53704;52.532;6.426;2022-11-20T08:51:19;101174.94;;;-5.41;100.00
63006;BME280;53704;52.532;6.426;2022-11-20T08:53:46;101170.59;;;-5.40;100.00
63006;BME280;53704;52.532;6.426;2022-11-20T08:56:13;101171.16;;;-5.32;100.00
63006;BME280;53704;52.532;6.426;2022-11-20T08:58:39;101174.31;;;-5.22;100.00
63006;BME280;53704;52.532;6.426;2022-11-20T09:01:04;101164.66;;;-5.22;100.00
63006;BME280;53704;52.532;6.426;2022-11-20T09:03:30;101163.50;;;-5.13;100.00
63006;BME280;53704;52.532;6.426;2022-11-20T09:06:00;101162.50;;;-5.09;100.00
63006;BME280;53704;52.532;6.426;2022-11-20T09:08:27;101151.00;;;-5.06;100.00
63006;BME280;53704;52.532;6.426;2022-11-20T09:10:54;101140.34;;;-5.02;100.00
63006;BME280;53704;52.532;6.426;2022-11-20T09:13:21;101147.25;;;-4.99;100.00
63006;BME280;53704;52.532;6.426;2022-11-20T09:15:46;101146.22;;;-4.95;100.00
63006;BME280;53704;52.532;6.426;2022-11-20T09:18:12;101147.75;;;-4.89;100.00
63006;BME280;53704;52.532;6.426;2022-11-20T09:20:37;101153.00;;;-4.89;100.00
63006;BME280;53704;52.532;6.426;2022-11-20T09:23:03;101141.13;;;-4.76;100.00
63006;BME280;53704;52.532;6.426;2022-11-20T09:25:28;101143.06;;;-4.58;100.00
63006;BME280;53704;52.532;6.426;2022-11-20T09:27:58;101139.13;;;-4.46;100.00
63006;BME280;53704;52.532;6.426;2022-11-20T09:30:24;101141.84;;;-4.49;100.00
63006;BME280;53704;52.532;6.426;2022-11-20T09:32:49;101146.06;;;-4.45;100.00
63006;BME280;53704;52.532;6.426;2022-11-20T09:35:15;101138.28;;;-4.48;100.00
63006;BME280;53704;52.532;6.426;2022-11-20T09:37:40;101142.59;;;-4.45;100.00
63006;BME280;53704;52.532;6.426;2022-11-20T09:40:06;101142.28;;;-4.38;100.00
63006;BME280;53704;52.532;6.426;2022-11-20T09:45:16;101131.22;;;-4.24;100.00
63006;BME280;53704;52.532;6.426;2022-11-20T09:50:37;101128.91;;;-4.09;100.00
63006;BME280;53704;52.532;6.426;2022-11-20T09:55:55;101138.22;;;-4.02;100.00
63006;BME280;53704;52.532;6.426;2022-11-20T10:01:26;101122.41;;;-3.80;100.00
63006;BME280;53704;52.532;6.426;2022-11-20T10:04:10;101129.28;;;-3.76;100.00
63006;BME280;53704;52.532;6.426;2022-11-20T10:06:49;101119.94;;;-3.63;100.00
63006;BME280;53704;52.532;6.426;2022-11-20T10:09:38;101119.47;;;-3.52;100.00
63006;BME280;53704;52.532;6.426;2022-11-20T10:20:15;101091.00;;;-3.23;100.00
63006;BME280;53704;52.532;6.426;2022-11-20T10:22:51;101093.28;;;-3.15;100.00
63006;BME280;53704;52.532;6.426;2022-11-20T10:25:20;101083.53;;;-3.13;100.00
63006;BME280;53704;52.532;6.426;2022-11-20T10:30:43;101089.97;;;-2.81;100.00
63006;BME280;53704;52.532;6.426;2022-11-20T10:33:21;101079.72;;;-2.68;100.00
63006;BME280;53704;52.532;6.426;2022-11-20T10:36:18;101074.72;;;-2.74;100.00
63006;BME280;53704;52.532;6.426;2022-11-20T10:38:57;101071.09;;;-2.71;100.00
63006;BME280;53704;52.532;6.426;2022-11-20T10:41:28;101056.91;;;-2.69;100.00
63006;BME280;53704;52.532;6.426;2022-11-20T10:44:17;101050.06;;;-2.54;100.00
63006;BME280;53704;52.532;6.426;2022-11-20T10:47:08;101048.66;;;-2.44;100.00
63006;BME280;53704;52.532;6.426;2022-11-20T10:49:35;101051.81;;;-2.35;100.00
63006;BME280;53704;52.532;6.426;2022-11-20T10:54:47;101051.53;;;-2.12;100.00
63006;BME280;53704;52.532;6.426;2022-11-20T10:57:35;101052.38;;;-2.11;100.00
63006;BME280;53704;52.532;6.426;2022-11-20T11:00:05;101051.34;;;-2.09;100.00
63006;BME280;53704;52.532;6.426;2022-11-20T11:02:34;101052.13;;;-2.07;100.00
63006;BME280;53704;52.532;6.426;2022-11-20T11:05:17;101052.97;;;-2.06;100.00
63006;BME280;53704;52.532;6.426;2022-11-20T11:07:49;101055.00;;;-1.94;100.00
63006;BME280;53704;52.532;6.426;2022-11-20T11:10:18;101056.81;;;-1.94;100.00
63006;BME280;53704;52.532;6.426;2022-11-20T11:12:47;101056.81;;;-1.94;100.00
63006;BME280;53704;52.532;6.426;2022-11-20T11:18:01;101045.44;;;-1.96;100.00
63006;BME280;53704;52.532;6.426;2022-11-20T11:20:27;101047.84;;;-1.74;100.00
63006;BME280;53704;52.532;6.426;2022-11-20T11:22:54;101046.00;;;-1.72;100.00
63006;BME280;53704;52.532;6.426;2022-11-20T11:25:30;101053.84;;;-1.71;100.00
63006;BME280;53704;52.532;6.426;2022-11-20T11:28:04;101051.56;;;-1.61;100.00
63006;BME280;53704;52.532;6.426;2022-11-20T11:30:41;101050.00;;;-1.65;100.00
63006;BME280;53704;52.532;6.426;2022-11-20T11:33:11;101043.78;;;-1.47;100.00
63006;BME280;53704;52.532;6.426;2022-11-20T11:35:51;101035.69;;;-1.43;100.00
63006;BME280;53704;52.532;6.426;2022-11-20T11:38:28;101024.66;;;-1.34;100.00
63006;BME280;53704;52.532;6.426;2022-11-20T11:40:56;101021.41;;;-1.23;100.00
63006;BME280;53704;52.532;6.426;2022-11-20T11:43:26;101022.63;;;-1.13;100.00
63006;BME280;53704;52.532;6.426;2022-11-20T11:46:27;101011.03;;;-1.11;100.00
63006;BME280;53704;52.532;6.426;2022-11-20T11:49:08;101005.38;;;-1.04;100.00
63006;BME280;53704;52.532;6.426;2022-11-20T11:51:50;101001.81;;;-0.87;100.00
63006;BME280;53704;52.532;6.426;2022-11-20T11:54:24;101002.31;;;-0.81;100.00
63006;BME280;53704;52.532;6.426;2022-11-20T11:56:53;100993.47;;;-0.80;100.00
63006;BME280;53704;52.532;6.426;2022-11-20T11:59:27;100995.31;;;-0.66;100.00
63006;BME280;53704;52.532;6.426;2022-11-20T12:02:04;100984.72;;;-0.50;100.00
63006;BME280;53704;52.532;6.426;2022-11-20T12:07:54;100986.00;;;-0.57;100.00
63006;BME280;53704;52.532;6.426;2022-11-20T12:13:02;100981.59;;;-0.57;100.00
63006;BME280;53704;52.532;6.426;2022-11-20T12:15:32;100973.31;;;-0.50;100.00
63006;BME280;53704;52.532;6.426;2022-11-20T12:17:58;100975.06;;;-0.51;100.00
63006;BME280;53704;52.532;6.426;2022-11-20T12:20:27;100978.63;;;-0.36;100.00
63006;BME280;53704;52.532;6.426;2022-11-20T12:23:06;100983.56;;;-0.30;100.00
63006;BME280;53704;52.532;6.426;2022-11-20T12:25:35;100981.09;;;-0.33;100.00
63006;BME280;53704;52.532;6.426;2022-11-20T12:28:27;100977.13;;;-0.26;100.00
63006;BME280;53704;52.532;6.426;2022-11-20T12:36:44;100954.22;;;-0.11;100.00
63006;BME280;53704;52.532;6.426;2022-11-20T12:39:25;100947.97;;;-0.10;100.00
63006;BME280;53704;52.532;6.426;2022-11-20T12:42:14;100940.34;;;0.00;100.00
63006;BME280;53704;52.532;6.426;2022-11-20T12:45:39;100934.38;;;0.11;100.00
63006;BME280;53704;52.532;6.426;2022-11-20T13:04:39;100896.94;;;0.17;100.00
63006;BME280;53704;52.532;6.426;2022-11-20T13:07:12;100894.94;;;0.06;100.00
63006;BME280;53704;52.532;6.426;2022-11-20T13:09:43;100889.75;;;0.05;100.00
63006;BME280;53704;52.532;6.426;2022-11-20T13:12:33;100889.97;;;0.16;100.00
63006;BME280;53704;52.532;6.426;2022-11-20T13:15:14;100881.25;;;0.14;100.00
63006;BME280;53704;52.532;6.426;2022-11-20T13:18:00;100880.97;;;0.18;100.00
63006;BME280;53704;52.532;6.426;2022-11-20T13:20:26;100875.94;;;0.28;100.00
63006;BME280;53704;52.532;6.426;2022-11-20T13:22:54;100864.59;;;0.26;100.00
63006;BME280;53704;52.532;6.426;2022-11-20T13:27:48;100854.16;;;0.38;100.00
63006;BME280;53704;52.532;6.426;2022-11-20T13:30:25;100845.38;;;0.37;100.00
63006;BME280;53704;52.532;6.426;2022-11-20T13:32:53;100845.09;;;0.42;100.00
63006;BME280;53704;52.532;6.426;2022-11-20T13:35:36;100842.00;;;0.35;100.00
63006;BME280;53704;52.532;6.426;2022-11-20T13:38:09;100841.03;;;0.36;100.00
63006;BME280;53704;52.532;6.426;2022-11-20T13:41:00;100844.34;;;0.40;100.00
63006;BME280;53704;52.532;6.426;2022-11-20T13:43:47;100836.41;;;0.40;100.00
63006;BME280;53704;52.532;6.426;2022-11-20T13:46:13;100833.34;;;0.46;100.00
63006;BME280;53704;52.532;6.426;2022-11-20T13:48:43;100833.72;;;0.54;100.00
63006;BME280;53704;52.532;6.426;2022-11-20T14:00:20;100813.56;;;0.51;100.00
63006;BME280;53704;52.532;6.426;2022-11-20T14:03:06;100801.97;;;0.67;100.00